Search for airport 
image banner adimage banner adimage banner ad
image banner ad

CA15 - Sierra Nevada Memorial Hospital

Located in Grass Valley, United States

ICAO - CA15, IATA -

Data provided by Airmate  

General information

Coordinates: N39°13'39" W121°2'51"
Elevation is 2718 feet MSL.
Magnetic variation is 14° East
View others Airports in California

Operational data

Special qualification required
Current time UTC:
Current local time:
Weather at : KGOO - Nevada County Air Park ( 4 km )
METAR: KGOO 150815Z AUTO 00000KT 10SM CLR 16/08 A3009 RMK A01
View NOTAMs / SUP AIP / TFR affecting this airport [VIEW]
Communications frequencies: [VIEW]

Runways:

Airport contact information

Address: Grass Valley United States

Satellite view of CA15